sensor_id;sensor_type;location;lat;lon;timestamp;P1;durP1;ratioP1;P2;durP2;ratioP2
14665;SDS011;7420;53.574;10.040;2023-02-15T00:00:52;115.82;;;44.55;;
14665;SDS011;7420;53.574;10.040;2023-02-15T00:03:19;122.43;;;47.28;;
14665;SDS011;7420;53.574;10.040;2023-02-15T00:05:45;182.30;;;53.08;;
14665;SDS011;7420;53.574;10.040;2023-02-15T00:08:10;115.07;;;46.65;;
14665;SDS011;7420;53.574;10.040;2023-02-15T00:10:36;112.85;;;43.10;;
14665;SDS011;7420;53.574;10.040;2023-02-15T00:13:01;124.20;;;50.03;;
14665;SDS011;7420;53.574;10.040;2023-02-15T00:15:27;108.10;;;46.13;;
14665;SDS011;7420;53.574;10.040;2023-02-15T00:17:52;151.05;;;47.13;;
14665;SDS011;7420;53.574;10.040;2023-02-15T00:20:18;125.10;;;49.90;;
14665;SDS011;7420;53.574;10.040;2023-02-15T00:22:43;106.25;;;42.92;;
14665;SDS011;7420;53.574;10.040;2023-02-15T00:25:09;128.82;;;45.80;;
14665;SDS011;7420;53.574;10.040;2023-02-15T00:27:34;165.77;;;47.50;;
14665;SDS011;7420;53.574;10.040;2023-02-15T00:30:00;120.00;;;44.95;;
14665;SDS011;7420;53.574;10.040;2023-02-15T00:32:25;149.77;;;51.47;;
14665;SDS011;7420;53.574;10.040;2023-02-15T00:34:50;199.75;;;52.70;;
14665;SDS011;7420;53.574;10.040;2023-02-15T00:37:16;135.32;;;44.25;;
14665;SDS011;7420;53.574;10.040;2023-02-15T00:39:41;126.80;;;48.13;;
14665;SDS011;7420;53.574;10.040;2023-02-15T00:42:07;147.60;;;48.92;;
14665;SDS011;7420;53.574;10.040;2023-02-15T00:44:32;142.18;;;48.20;;
14665;SDS011;7420;53.574;10.040;2023-02-15T00:46:57;141.30;;;46.30;;
14665;SDS011;7420;53.574;10.040;2023-02-15T00:49:23;108.82;;;47.83;;
14665;SDS011;7420;53.574;10.040;2023-02-15T00:51:48;142.27;;;49.75;;
14665;SDS011;7420;53.574;10.040;2023-02-15T00:54:13;168.55;;;51.30;;
14665;SDS011;7420;53.574;10.040;2023-02-15T00:56:39;138.95;;;48.65;;
14665;SDS011;7420;53.574;10.040;2023-02-15T00:59:04;118.45;;;46.95;;
14665;SDS011;7420;53.574;10.040;2023-02-15T01:01:29;119.30;;;42.80;;
14665;SDS011;7420;53.574;10.040;2023-02-15T01:03:55;166.57;;;52.45;;
14665;SDS011;7420;53.574;10.040;2023-02-15T01:06:20;124.88;;;44.70;;
14665;SDS011;7420;53.574;10.040;2023-02-15T01:08:46;111.97;;;47.03;;
14665;SDS011;7420;53.574;10.040;2023-02-15T01:11:13;153.30;;;52.42;;
14665;SDS011;7420;53.574;10.040;2023-02-15T01:13:46;127.28;;;46.33;;
14665;SDS011;7420;53.574;10.040;2023-02-15T01:16:12;111.30;;;43.78;;
14665;SDS011;7420;53.574;10.040;2023-02-15T01:18:38;110.35;;;43.20;;
14665;SDS011;7420;53.574;10.040;2023-02-15T01:21:13;141.57;;;42.92;;
14665;SDS011;7420;53.574;10.040;2023-02-15T01:23:41;127.05;;;47.13;;
14665;SDS011;7420;53.574;10.040;2023-02-15T01:26:07;135.95;;;42.65;;
14665;SDS011;7420;53.574;10.040;2023-02-15T01:28:33;109.75;;;43.22;;
14665;SDS011;7420;53.574;10.040;2023-02-15T01:30:58;168.27;;;51.60;;
14665;SDS011;7420;53.574;10.040;2023-02-15T01:33:24;109.32;;;42.00;;
14665;SDS011;7420;53.574;10.040;2023-02-15T01:35:55;125.55;;;44.10;;
14665;SDS011;7420;53.574;10.040;2023-02-15T01:38:22;116.32;;;41.63;;
14665;SDS011;7420;53.574;10.040;2023-02-15T01:40:50;118.63;;;45.60;;
14665;SDS011;7420;53.574;10.040;2023-02-15T01:43:17;132.25;;;45.20;;
14665;SDS011;7420;53.574;10.040;2023-02-15T01:45:43;117.55;;;47.30;;
14665;SDS011;7420;53.574;10.040;2023-02-15T01:48:19;153.85;;;47.97;;
14665;SDS011;7420;53.574;10.040;2023-02-15T01:50:49;143.75;;;49.10;;
14665;SDS011;7420;53.574;10.040;2023-02-15T01:53:24;147.98;;;44.58;;
14665;SDS011;7420;53.574;10.040;2023-02-15T01:58:27;121.20;;;45.40;;
14665;SDS011;7420;53.574;10.040;2023-02-15T02:00:54;129.10;;;45.42;;
14665;SDS011;7420;53.574;10.040;2023-02-15T02:03:24;140.23;;;50.08;;
14665;SDS011;7420;53.574;10.040;2023-02-15T02:06:01;96.18;;;42.42;;
14665;SDS011;7420;53.574;10.040;2023-02-15T02:08:27;134.25;;;46.33;;
14665;SDS011;7420;53.574;10.040;2023-02-15T02:10:53;115.72;;;44.38;;
14665;SDS011;7420;53.574;10.040;2023-02-15T02:13:18;123.75;;;42.63;;
14665;SDS011;7420;53.574;10.040;2023-02-15T02:15:45;149.93;;;49.55;;
14665;SDS011;7420;53.574;10.040;2023-02-15T02:21:02;96.32;;;38.20;;
14665;SDS011;7420;53.574;10.040;2023-02-15T02:34:29;122.15;;;44.08;;
14665;SDS011;7420;53.574;10.040;2023-02-15T02:42:40;130.23;;;49.00;;
14665;SDS011;7420;53.574;10.040;2023-02-15T02:45:24;174.68;;;51.67;;
14665;SDS011;7420;53.574;10.040;2023-02-15T02:47:54;124.38;;;46.58;;
14665;SDS011;7420;53.574;10.040;2023-02-15T02:50:26;141.90;;;44.65;;
14665;SDS011;7420;53.574;10.040;2023-02-15T02:52:54;131.85;;;46.83;;
14665;SDS011;7420;53.574;10.040;2023-02-15T02:55:38;195.63;;;51.90;;
14665;SDS011;7420;53.574;10.040;2023-02-15T03:00:34;104.90;;;43.25;;
14665;SDS011;7420;53.574;10.040;2023-02-15T03:03:47;110.60;;;43.25;;
14665;SDS011;7420;53.574;10.040;2023-02-15T03:05:57;132.63;;;44.05;;
14665;SDS011;7420;53.574;10.040;2023-02-15T03:08:27;116.45;;;43.67;;
14665;SDS011;7420;53.574;10.040;2023-02-15T03:10:59;129.68;;;45.40;;
14665;SDS011;7420;53.574;10.040;2023-02-15T03:13:26;125.85;;;45.78;;
14665;SDS011;7420;53.574;10.040;2023-02-15T03:15:52;128.85;;;47.00;;
14665;SDS011;7420;53.574;10.040;2023-02-15T03:18:41;105.75;;;42.58;;
14665;SDS011;7420;53.574;10.040;2023-02-15T03:21:17;110.95;;;46.47;;
14665;SDS011;7420;53.574;10.040;2023-02-15T03:23:49;101.15;;;43.03;;
14665;SDS011;7420;53.574;10.040;2023-02-15T03:26:21;105.68;;;40.88;;
14665;SDS011;7420;53.574;10.040;2023-02-15T03:28:49;96.13;;;39.90;;
14665;SDS011;7420;53.574;10.040;2023-02-15T03:31:18;98.45;;;40.20;;
14665;SDS011;7420;53.574;10.040;2023-02-15T03:33:50;115.72;;;44.75;;
14665;SDS011;7420;53.574;10.040;2023-02-15T03:36:29;121.65;;;44.10;;
14665;SDS011;7420;53.574;10.040;2023-02-15T03:39:04;133.02;;;45.78;;
14665;SDS011;7420;53.574;10.040;2023-02-15T03:41:40;158.55;;;50.20;;
14665;SDS011;7420;53.574;10.040;2023-02-15T03:44:25;116.25;;;44.35;;
14665;SDS011;7420;53.574;10.040;2023-02-15T03:52:20;112.97;;;40.95;;
14665;SDS011;7420;53.574;10.040;2023-02-15T03:54:47;148.82;;;46.80;;
14665;SDS011;7420;53.574;10.040;2023-02-15T03:59:58;109.20;;;42.25;;
14665;SDS011;7420;53.574;10.040;2023-02-15T04:02:50;119.22;;;43.67;;
14665;SDS011;7420;53.574;10.040;2023-02-15T04:05:24;89.28;;;37.85;;
14665;SDS011;7420;53.574;10.040;2023-02-15T04:07:49;98.05;;;38.70;;
14665;SDS011;7420;53.574;10.040;2023-02-15T04:10:15;111.53;;;42.88;;
14665;SDS011;7420;53.574;10.040;2023-02-15T04:12:58;139.43;;;43.13;;
14665;SDS011;7420;53.574;10.040;2023-02-15T04:15:24;97.93;;;39.50;;
14665;SDS011;7420;53.574;10.040;2023-02-15T04:18:07;115.38;;;38.88;;
14665;SDS011;7420;53.574;10.040;2023-02-15T04:20:33;120.93;;;41.67;;
14665;SDS011;7420;53.574;10.040;2023-02-15T04:26:04;102.85;;;37.03;;
14665;SDS011;7420;53.574;10.040;2023-02-15T04:28:30;107.75;;;37.22;;
14665;SDS011;7420;53.574;10.040;2023-02-15T04:30:55;78.78;;;31.60;;
14665;SDS011;7420;53.574;10.040;2023-02-15T04:33:21;93.65;;;33.95;;
14665;SDS011;7420;53.574;10.040;2023-02-15T04:35:46;95.28;;;34.33;;
14665;SDS011;7420;53.574;10.040;2023-02-15T04:38:11;106.07;;;40.65;;
14665;SDS011;7420;53.574;10.040;2023-02-15T04:40:37;91.40;;;35.97;;
14665;SDS011;7420;53.574;10.040;2023-02-15T04:43:02;92.68;;;38.88;;
14665;SDS011;7420;53.574;10.040;2023-02-15T04:45:27;149.32;;;41.95;;
14665;SDS011;7420;53.574;10.040;2023-02-15T04:47:53;87.40;;;34.95;;
14665;SDS011;7420;53.574;10.040;2023-02-15T04:50:18;93.75;;;37.65;;
14665;SDS011;7420;53.574;10.040;2023-02-15T04:52:43;95.88;;;37.67;;
14665;SDS011;7420;53.574;10.040;2023-02-15T04:55:09;148.07;;;42.22;;
14665;SDS011;7420;53.574;10.040;2023-02-15T04:57:35;116.25;;;38.70;;
14665;SDS011;7420;53.574;10.040;2023-02-15T05:00:00;91.15;;;36.60;;
14665;SDS011;7420;53.574;10.040;2023-02-15T05:02:25;110.93;;;37.20;;
14665;SDS011;7420;53.574;10.040;2023-02-15T05:04:51;71.90;;;32.80;;
14665;SDS011;7420;53.574;10.040;2023-02-15T05:07:16;111.28;;;35.80;;
14665;SDS011;7420;53.574;10.040;2023-02-15T05:09:42;98.07;;;38.28;;
14665;SDS011;7420;53.574;10.040;2023-02-15T05:12:07;120.57;;;38.35;;
14665;SDS011;7420;53.574;10.040;2023-02-15T05:14:33;144.55;;;42.08;;
14665;SDS011;7420;53.574;10.040;2023-02-15T05:16:58;116.35;;;40.85;;
14665;SDS011;7420;53.574;10.040;2023-02-15T05:19:26;161.95;;;42.90;;
14665;SDS011;7420;53.574;10.040;2023-02-15T05:21:51;93.07;;;37.83;;
14665;SDS011;7420;53.574;10.040;2023-02-15T05:24:17;84.95;;;34.50;;
14665;SDS011;7420;53.574;10.040;2023-02-15T05:27:00;154.13;;;46.38;;
14665;SDS011;7420;53.574;10.040;2023-02-15T05:29:44;134.73;;;40.40;;
14665;SDS011;7420;53.574;10.040;2023-02-15T05:32:12;82.95;;;36.75;;
14665;SDS011;7420;53.574;10.040;2023-02-15T05:34:38;103.72;;;38.75;;
14665;SDS011;7420;53.574;10.040;2023-02-15T05:37:03;162.57;;;46.58;;
14665;SDS011;7420;53.574;10.040;2023-02-15T05:39:28;241.70;;;58.20;;
14665;SDS011;7420;53.574;10.040;2023-02-15T05:41:54;100.30;;;40.90;;
14665;SDS011;7420;53.574;10.040;2023-02-15T05:44:19;95.35;;;34.65;;
14665;SDS011;7420;53.574;10.040;2023-02-15T05:46:44;104.57;;;36.60;;
14665;SDS011;7420;53.574;10.040;2023-02-15T05:49:10;89.63;;;35.25;;
14665;SDS011;7420;53.574;10.040;2023-02-15T05:51:35;103.53;;;34.35;;
14665;SDS011;7420;53.574;10.040;2023-02-15T05:54:00;157.05;;;39.47;;
14665;SDS011;7420;53.574;10.040;2023-02-15T05:56:26;103.30;;;35.58;;
14665;SDS011;7420;53.574;10.040;2023-02-15T05:58:52;101.55;;;35.97;;
14665;SDS011;7420;53.574;10.040;2023-02-15T06:01:18;94.80;;;35.80;;
14665;SDS011;7420;53.574;10.040;2023-02-15T06:03:46;95.00;;;33.20;;
14665;SDS011;7420;53.574;10.040;2023-02-15T06:06:11;151.38;;;44.58;;
14665;SDS011;7420;53.574;10.040;2023-02-15T06:08:37;140.50;;;41.67;;
14665;SDS011;7420;53.574;10.040;2023-02-15T06:11:02;123.60;;;41.75;;
14665;SDS011;7420;53.574;10.040;2023-02-15T06:13:28;106.70;;;36.63;;
14665;SDS011;7420;53.574;10.040;2023-02-15T06:15:54;125.03;;;39.95;;
14665;SDS011;7420;53.574;10.040;2023-02-15T06:18:19;156.70;;;47.05;;
14665;SDS011;7420;53.574;10.040;2023-02-15T06:20:46;83.38;;;35.03;;
14665;SDS011;7420;53.574;10.040;2023-02-15T06:23:12;84.68;;;33.58;;
14665;SDS011;7420;53.574;10.040;2023-02-15T06:25:37;118.68;;;40.60;;
14665;SDS011;7420;53.574;10.040;2023-02-15T06:28:03;93.55;;;35.83;;
14665;SDS011;7420;53.574;10.040;2023-02-15T06:30:28;87.07;;;34.53;;
14665;SDS011;7420;53.574;10.040;2023-02-15T06:32:53;87.15;;;34.25;;
14665;SDS011;7420;53.574;10.040;2023-02-15T06:35:19;121.38;;;37.80;;
14665;SDS011;7420;53.574;10.040;2023-02-15T06:37:45;85.90;;;35.97;;
14665;SDS011;7420;53.574;10.040;2023-02-15T06:40:11;75.55;;;31.05;;
14665;SDS011;7420;53.574;10.040;2023-02-15T06:42:37;76.30;;;33.05;;
14665;SDS011;7420;53.574;10.040;2023-02-15T06:45:02;103.47;;;38.85;;
14665;SDS011;7420;53.574;10.040;2023-02-15T06:47:28;78.97;;;35.90;;
14665;SDS011;7420;53.574;10.040;2023-02-15T06:49:54;87.85;;;36.10;;
14665;SDS011;7420;53.574;10.040;2023-02-15T06:52:19;83.93;;;35.40;;
14665;SDS011;7420;53.574;10.040;2023-02-15T06:54:45;93.07;;;34.22;;
14665;SDS011;7420;53.574;10.040;2023-02-15T06:57:10;93.05;;;33.75;;
14665;SDS011;7420;53.574;10.040;2023-02-15T06:59:35;103.35;;;36.22;;
14665;SDS011;7420;53.574;10.040;2023-02-15T07:02:01;81.22;;;34.20;;
14665;SDS011;7420;53.574;10.040;2023-02-15T07:04:26;91.60;;;34.65;;
14665;SDS011;7420;53.574;10.040;2023-02-15T07:06:54;120.32;;;39.13;;
14665;SDS011;7420;53.574;10.040;2023-02-15T07:09:20;119.15;;;37.38;;
14665;SDS011;7420;53.574;10.040;2023-02-15T07:11:45;76.53;;;32.90;;
14665;SDS011;7420;53.574;10.040;2023-02-15T07:14:29;77.07;;;31.05;;
14665;SDS011;7420;53.574;10.040;2023-02-15T07:16:54;88.50;;;32.58;;
14665;SDS011;7420;53.574;10.040;2023-02-15T07:19:20;67.35;;;32.13;;
14665;SDS011;7420;53.574;10.040;2023-02-15T07:21:45;65.78;;;28.80;;
14665;SDS011;7420;53.574;10.040;2023-02-15T07:24:11;76.45;;;32.63;;
14665;SDS011;7420;53.574;10.040;2023-02-15T07:26:36;87.22;;;36.20;;
14665;SDS011;7420;53.574;10.040;2023-02-15T07:29:01;92.25;;;35.15;;
14665;SDS011;7420;53.574;10.040;2023-02-15T07:31:27;69.97;;;31.65;;
14665;SDS011;7420;53.574;10.040;2023-02-15T07:33:52;101.07;;;33.75;;
14665;SDS011;7420;53.574;10.040;2023-02-15T07:36:18;77.78;;;33.00;;
14665;SDS011;7420;53.574;10.040;2023-02-15T07:38:43;78.75;;;30.90;;
14665;SDS011;7420;53.574;10.040;2023-02-15T07:41:10;71.28;;;30.40;;
14665;SDS011;7420;53.574;10.040;2023-02-15T07:43:39;99.35;;;33.92;;
14665;SDS011;7420;53.574;10.040;2023-02-15T07:46:07;92.30;;;34.88;;
14665;SDS011;7420;53.574;10.040;2023-02-15T07:48:34;103.13;;;34.65;;
14665;SDS011;7420;53.574;10.040;2023-02-15T07:51:01;81.47;;;33.97;;
14665;SDS011;7420;53.574;10.040;2023-02-15T07:53:29;71.38;;;31.25;;
14665;SDS011;7420;53.574;10.040;2023-02-15T07:55:58;88.18;;;34.92;;
14665;SDS011;7420;53.574;10.040;2023-02-15T07:58:24;111.63;;;41.67;;
14665;SDS011;7420;53.574;10.040;2023-02-15T08:01:09;95.72;;;36.97;;
14665;SDS011;7420;53.574;10.040;2023-02-15T08:03:34;123.30;;;36.05;;
14665;SDS011;7420;53.574;10.040;2023-02-15T08:05:59;82.75;;;35.08;;
14665;SDS011;7420;53.574;10.040;2023-02-15T08:08:26;81.43;;;33.08;;
14665;SDS011;7420;53.574;10.040;2023-02-15T08:16:43;70.25;;;31.60;;
14665;SDS011;7420;53.574;10.040;2023-02-15T08:21:46;118.57;;;38.03;;
14665;SDS011;7420;53.574;10.040;2023-02-15T08:24:14;106.82;;;36.67;;
14665;SDS011;7420;53.574;10.040;2023-02-15T08:26:41;108.95;;;38.80;;
14665;SDS011;7420;53.574;10.040;2023-02-15T08:29:08;111.30;;;39.97;;
14665;SDS011;7420;53.574;10.040;2023-02-15T08:31:34;145.00;;;40.80;;
14665;SDS011;7420;53.574;10.040;2023-02-15T08:34:00;89.53;;;34.13;;
14665;SDS011;7420;53.574;10.040;2023-02-15T08:36:26;129.68;;;39.50;;
14665;SDS011;7420;53.574;10.040;2023-02-15T08:38:54;94.65;;;36.58;;
14665;SDS011;7420;53.574;10.040;2023-02-15T08:41:23;75.15;;;33.17;;
14665;SDS011;7420;53.574;10.040;2023-02-15T08:43:53;76.07;;;34.97;;
14665;SDS011;7420;53.574;10.040;2023-02-15T08:46:20;70.50;;;31.83;;
14665;SDS011;7420;53.574;10.040;2023-02-15T08:48:47;81.57;;;36.38;;
14665;SDS011;7420;53.574;10.040;2023-02-15T08:51:16;81.53;;;36.60;;
14665;SDS011;7420;53.574;10.040;2023-02-15T08:53:47;83.95;;;38.17;;
14665;SDS011;7420;53.574;10.040;2023-02-15T08:56:20;81.22;;;32.50;;
14665;SDS011;7420;53.574;10.040;2023-02-15T08:58:47;77.70;;;32.63;;
14665;SDS011;7420;53.574;10.040;2023-02-15T09:01:14;70.38;;;30.25;;
14665;SDS011;7420;53.574;10.040;2023-02-15T09:03:45;59.08;;;30.30;;
14665;SDS011;7420;53.574;10.040;2023-02-15T09:06:12;69.07;;;30.58;;
14665;SDS011;7420;53.574;10.040;2023-02-15T09:08:38;66.53;;;29.80;;
14665;SDS011;7420;53.574;10.040;2023-02-15T09:11:08;70.03;;;33.25;;
14665;SDS011;7420;53.574;10.040;2023-02-15T09:13:36;64.10;;;31.30;;
14665;SDS011;7420;53.574;10.040;2023-02-15T09:16:03;102.82;;;35.50;;
14665;SDS011;7420;53.574;10.040;2023-02-15T09:18:31;76.72;;;30.00;;
14665;SDS011;7420;53.574;10.040;2023-02-15T09:21:07;66.57;;;31.30;;
14665;SDS011;7420;53.574;10.040;2023-02-15T09:23:40;78.93;;;34.55;;
14665;SDS011;7420;53.574;10.040;2023-02-15T09:26:11;71.22;;;33.35;;
14665;SDS011;7420;53.574;10.040;2023-02-15T09:28:38;70.35;;;32.75;;
14665;SDS011;7420;53.574;10.040;2023-02-15T09:33:37;69.13;;;32.22;;
14665;SDS011;7420;53.574;10.040;2023-02-15T09:36:04;70.88;;;31.77;;
14665;SDS011;7420;53.574;10.040;2023-02-15T09:38:30;66.47;;;31.23;;
14665;SDS011;7420;53.574;10.040;2023-02-15T09:41:06;75.40;;;32.47;;
14665;SDS011;7420;53.574;10.040;2023-02-15T09:43:42;73.10;;;34.08;;
14665;SDS011;7420;53.574;10.040;2023-02-15T09:46:22;100.72;;;31.98;;
14665;SDS011;7420;53.574;10.040;2023-02-15T09:49:06;90.05;;;31.75;;
14665;SDS011;7420;53.574;10.040;2023-02-15T09:52:11;73.07;;;31.15;;
14665;SDS011;7420;53.574;10.040;2023-02-15T09:54:58;69.25;;;30.67;;
14665;SDS011;7420;53.574;10.040;2023-02-15T10:10:50;68.60;;;30.95;;
14665;SDS011;7420;53.574;10.040;2023-02-15T10:13:49;75.65;;;32.22;;
14665;SDS011;7420;53.574;10.040;2023-02-15T10:16:31;64.13;;;31.23;;
14665;SDS011;7420;53.574;10.040;2023-02-15T10:21:58;88.60;;;34.35;;
14665;SDS011;7420;53.574;10.040;2023-02-15T10:29:39;69.13;;;30.20;;
14665;SDS011;7420;53.574;10.040;2023-02-15T10:35:01;71.53;;;30.70;;
14665;SDS011;7420;53.574;10.040;2023-02-15T10:56:03;53.80;;;27.80;;
14665;SDS011;7420;53.574;10.040;2023-02-15T11:07:20;71.10;;;32.45;;
14665;SDS011;7420;53.574;10.040;2023-02-15T11:09:49;60.92;;;29.15;;
14665;SDS011;7420;53.574;10.040;2023-02-15T11:12:21;59.30;;;28.40;;
14665;SDS011;7420;53.574;10.040;2023-02-15T11:14:59;67.18;;;31.15;;
14665;SDS011;7420;53.574;10.040;2023-02-15T11:17:34;64.80;;;29.10;;
14665;SDS011;7420;53.574;10.040;2023-02-15T11:22:43;57.80;;;27.63;;
14665;SDS011;7420;53.574;10.040;2023-02-15T11:25:20;64.50;;;31.35;;
14665;SDS011;7420;53.574;10.040;2023-02-15T11:27:50;57.08;;;30.25;;
14665;SDS011;7420;53.574;10.040;2023-02-15T11:30:20;59.88;;;31.20;;
14665;SDS011;7420;53.574;10.040;2023-02-15T11:32:49;59.67;;;30.67;;
14665;SDS011;7420;53.574;10.040;2023-02-15T11:40:22;64.93;;;32.85;;
14665;SDS011;7420;53.574;10.040;2023-02-15T11:42:51;63.97;;;31.50;;
14665;SDS011;7420;53.574;10.040;2023-02-15T11:45:29;61.88;;;30.77;;
14665;SDS011;7420;53.574;10.040;2023-02-15T11:47:56;56.88;;;29.48;;
14665;SDS011;7420;53.574;10.040;2023-02-15T11:50:23;56.22;;;30.52;;
14665;SDS011;7420;53.574;10.040;2023-02-15T11:52:51;63.28;;;29.80;;
14665;SDS011;7420;53.574;10.040;2023-02-15T11:55:20;54.20;;;28.15;;
14665;SDS011;7420;53.574;10.040;2023-02-15T11:57:50;63.63;;;31.10;;
14665;SDS011;7420;53.574;10.040;2023-02-15T12:00:39;61.60;;;31.85;;
14665;SDS011;7420;53.574;10.040;2023-02-15T12:03:09;60.33;;;28.63;;
14665;SDS011;7420;53.574;10.040;2023-02-15T12:05:57;55.15;;;28.67;;
14665;SDS011;7420;53.574;10.040;2023-02-15T12:08:26;50.13;;;26.53;;
14665;SDS011;7420;53.574;10.040;2023-02-15T12:11:12;51.03;;;26.25;;
14665;SDS011;7420;53.574;10.040;2023-02-15T12:16:43;51.45;;;26.88;;
14665;SDS011;7420;53.574;10.040;2023-02-15T12:21:53;45.47;;;27.30;;
14665;SDS011;7420;53.574;10.040;2023-02-15T12:24:20;42.13;;;24.73;;
14665;SDS011;7420;53.574;10.040;2023-02-15T12:27:04;46.45;;;25.52;;
14665;SDS011;7420;53.574;10.040;2023-02-15T12:29:42;47.03;;;27.48;;
14665;SDS011;7420;53.574;10.040;2023-02-15T12:32:24;48.28;;;28.08;;
14665;SDS011;7420;53.574;10.040;2023-02-15T12:35:08;45.95;;;26.42;;
14665;SDS011;7420;53.574;10.040;2023-02-15T12:37:39;45.47;;;27.05;;
14665;SDS011;7420;53.574;10.040;2023-02-15T12:42:53;43.15;;;27.27;;
14665;SDS011;7420;53.574;10.040;2023-02-15T12:45:23;44.97;;;25.98;;
14665;SDS011;7420;53.574;10.040;2023-02-15T12:48:18;42.65;;;26.98;;
14665;SDS011;7420;53.574;10.040;2023-02-15T12:50:47;43.92;;;24.95;;
14665;SDS011;7420;53.574;10.040;2023-02-15T12:53:19;42.55;;;26.73;;
14665;SDS011;7420;53.574;10.040;2023-02-15T12:55:55;41.92;;;26.15;;
14665;SDS011;7420;53.574;10.040;2023-02-15T12:58:23;39.13;;;24.80;;
14665;SDS011;7420;53.574;10.040;2023-02-15T13:01:04;43.17;;;28.13;;
14665;SDS011;7420;53.574;10.040;2023-02-15T13:03:35;38.25;;;25.33;;
14665;SDS011;7420;53.574;10.040;2023-02-15T13:06:02;43.58;;;27.38;;
14665;SDS011;7420;53.574;10.040;2023-02-15T13:08:33;42.33;;;25.60;;
14665;SDS011;7420;53.574;10.040;2023-02-15T13:11:06;39.47;;;26.33;;
14665;SDS011;7420;53.574;10.040;2023-02-15T13:13:35;40.03;;;26.70;;
14665;SDS011;7420;53.574;10.040;2023-02-15T13:16:17;41.40;;;27.50;;
14665;SDS011;7420;53.574;10.040;2023-02-15T13:18:50;38.60;;;26.80;;
14665;SDS011;7420;53.574;10.040;2023-02-15T13:21:21;40.50;;;28.83;;
14665;SDS011;7420;53.574;10.040;2023-02-15T13:23:56;39.50;;;26.13;;
14665;SDS011;7420;53.574;10.040;2023-02-15T13:26:30;37.95;;;25.45;;
14665;SDS011;7420;53.574;10.040;2023-02-15T13:28:58;37.83;;;26.05;;
14665;SDS011;7420;53.574;10.040;2023-02-15T13:31:30;34.53;;;23.70;;
14665;SDS011;7420;53.574;10.040;2023-02-15T13:39:39;30.30;;;23.77;;
14665;SDS011;7420;53.574;10.040;2023-02-15T13:44:53;27.55;;;22.15;;
14665;SDS011;7420;53.574;10.040;2023-02-15T13:52:50;26.42;;;22.20;;
14665;SDS011;7420;53.574;10.040;2023-02-15T14:07:19;27.08;;;21.83;;
14665;SDS011;7420;53.574;10.040;2023-02-15T14:15:58;25.90;;;20.48;;
14665;SDS011;7420;53.574;10.040;2023-02-15T14:18:34;25.88;;;21.33;;
14665;SDS011;7420;53.574;10.040;2023-02-15T14:21:10;25.63;;;21.70;;
14665;SDS011;7420;53.574;10.040;2023-02-15T14:23:52;28.10;;;21.10;;
14665;SDS011;7420;53.574;10.040;2023-02-15T14:31:43;32.47;;;21.77;;
14665;SDS011;7420;53.574;10.040;2023-02-15T14:34:45;25.38;;;21.05;;
14665;SDS011;7420;53.574;10.040;2023-02-15T14:40:40;29.58;;;21.00;;
14665;SDS011;7420;53.574;10.040;2023-02-15T14:49:12;29.65;;;21.48;;
14665;SDS011;7420;53.574;10.040;2023-02-15T14:57:32;30.02;;;21.00;;
14665;SDS011;7420;53.574;10.040;2023-02-15T15:04:44;26.70;;;19.60;;
14665;SDS011;7420;53.574;10.040;2023-02-15T15:07:21;29.00;;;18.30;;
14665;SDS011;7420;53.574;10.040;2023-02-15T15:14:50;27.58;;;19.65;;
14665;SDS011;7420;53.574;10.040;2023-02-15T15:20:01;28.15;;;20.63;;
14665;SDS011;7420;53.574;10.040;2023-02-15T15:22:38;31.20;;;20.90;;
14665;SDS011;7420;53.574;10.040;2023-02-15T15:27:55;31.42;;;20.48;;
14665;SDS011;7420;53.574;10.040;2023-02-15T15:38:15;33.33;;;21.38;;
14665;SDS011;7420;53.574;10.040;2023-02-15T15:49:33;34.53;;;20.05;;
14665;SDS011;7420;53.574;10.040;2023-02-15T15:52:02;32.75;;;19.90;;
14665;SDS011;7420;53.574;10.040;2023-02-15T15:54:33;35.10;;;20.65;;
14665;SDS011;7420;53.574;10.040;2023-02-15T15:57:03;31.95;;;21.15;;
14665;SDS011;7420;53.574;10.040;2023-02-15T15:59:31;33.50;;;20.65;;
14665;SDS011;7420;53.574;10.040;2023-02-15T16:02:10;36.20;;;21.98;;
14665;SDS011;7420;53.574;10.040;2023-02-15T16:04:38;30.20;;;19.38;;
14665;SDS011;7420;53.574;10.040;2023-02-15T16:10:06;31.08;;;18.70;;
14665;SDS011;7420;53.574;10.040;2023-02-15T16:12:45;32.20;;;19.73;;
14665;SDS011;7420;53.574;10.040;2023-02-15T16:15:17;31.92;;;19.73;;
14665;SDS011;7420;53.574;10.040;2023-02-15T16:17:59;35.97;;;22.27;;
14665;SDS011;7420;53.574;10.040;2023-02-15T16:20:32;32.47;;;20.48;;
14665;SDS011;7420;53.574;10.040;2023-02-15T16:23:16;31.60;;;20.33;;
14665;SDS011;7420;53.574;10.040;2023-02-15T16:26:12;35.08;;;21.80;;
14665;SDS011;7420;53.574;10.040;2023-02-15T16:31:26;39.35;;;21.30;;
14665;SDS011;7420;53.574;10.040;2023-02-15T16:33:52;35.55;;;22.60;;
14665;SDS011;7420;53.574;10.040;2023-02-15T16:36:22;34.08;;;20.52;;
14665;SDS011;7420;53.574;10.040;2023-02-15T16:41:15;35.13;;;22.55;;
14665;SDS011;7420;53.574;10.040;2023-02-15T16:43:46;35.22;;;22.33;;
14665;SDS011;7420;53.574;10.040;2023-02-15T16:46:20;35.10;;;20.05;;
14665;SDS011;7420;53.574;10.040;2023-02-15T16:48:51;37.35;;;22.63;;
14665;SDS011;7420;53.574;10.040;2023-02-15T16:51:23;39.15;;;24.38;;
14665;SDS011;7420;53.574;10.040;2023-02-15T16:53:51;34.47;;;18.75;;
14665;SDS011;7420;53.574;10.040;2023-02-15T16:56:23;36.50;;;22.15;;
14665;SDS011;7420;53.574;10.040;2023-02-15T16:58:50;36.55;;;21.75;;
14665;SDS011;7420;53.574;10.040;2023-02-15T17:01:19;37.85;;;22.27;;
14665;SDS011;7420;53.574;10.040;2023-02-15T17:03:48;37.28;;;22.42;;
14665;SDS011;7420;53.574;10.040;2023-02-15T17:06:25;36.33;;;23.17;;
14665;SDS011;7420;53.574;10.040;2023-02-15T17:08:51;35.75;;;21.63;;
14665;SDS011;7420;53.574;10.040;2023-02-15T17:11:40;37.53;;;21.52;;
14665;SDS011;7420;53.574;10.040;2023-02-15T17:16:35;41.15;;;22.25;;
14665;SDS011;7420;53.574;10.040;2023-02-15T17:19:17;40.40;;;23.83;;
14665;SDS011;7420;53.574;10.040;2023-02-15T17:21:47;36.35;;;23.05;;
14665;SDS011;7420;53.574;10.040;2023-02-15T17:24:22;40.50;;;23.15;;
14665;SDS011;7420;53.574;10.040;2023-02-15T17:26:56;39.92;;;22.50;;
14665;SDS011;7420;53.574;10.040;2023-02-15T17:31:59;46.25;;;27.08;;
14665;SDS011;7420;53.574;10.040;2023-02-15T17:39:38;42.05;;;24.05;;
14665;SDS011;7420;53.574;10.040;2023-02-15T17:42:05;40.00;;;24.92;;
14665;SDS011;7420;53.574;10.040;2023-02-15T17:44:30;43.97;;;24.27;;
14665;SDS011;7420;53.574;10.040;2023-02-15T17:46:56;45.67;;;24.40;;
14665;SDS011;7420;53.574;10.040;2023-02-15T17:49:25;43.15;;;25.08;;
14665;SDS011;7420;53.574;10.040;2023-02-15T17:51:59;43.63;;;26.10;;
14665;SDS011;7420;53.574;10.040;2023-02-15T17:54:26;42.03;;;24.42;;
14665;SDS011;7420;53.574;10.040;2023-02-15T17:57:13;39.88;;;22.08;;
14665;SDS011;7420;53.574;10.040;2023-02-15T17:59:40;39.50;;;23.23;;
14665;SDS011;7420;53.574;10.040;2023-02-15T18:02:24;38.40;;;23.13;;
14665;SDS011;7420;53.574;10.040;2023-02-15T18:07:58;40.92;;;24.48;;
14665;SDS011;7420;53.574;10.040;2023-02-15T18:10:42;45.40;;;26.38;;
14665;SDS011;7420;53.574;10.040;2023-02-15T18:13:26;42.60;;;23.70;;